Time;durP1;ratioP1;P1;durP2;ratioP2;P2;SDS_P1;SDS_P2;PMS_P1;PMS_P2;Temp;Humidity;BMP_temperature;BMP_pressure;BME280_temperature;BME280_humidity;BME280_pressure;Samples;Min_cycle;Max_cycle;Signal;HPM_P1;HPM_P2
2021/11/18 00:00:27;;;;;;;20.08;6.95;;;;;;;7.12;87.84;101711.31;1796323;79;21021;-61
2021/11/18 00:02:55;;;;;;;15.10;7.08;;;;;;;7.12;88.42;101711.31;1770904;79;21066;-62
2021/11/18 00:05:24;;;;;;;14.90;6.30;;;;;;;7.14;88.40;101713.52;1739564;82;21120;-63
2021/11/18 00:07:52;;;;;;;17.37;7.45;;;;;;;7.19;88.69;101704.63;1749908;80;21445;-62
2021/11/18 00:10:35;;;;;;;15.68;7.40;;;;;;;7.20;88.85;101711.73;1769166;80;21095;-62
2021/11/18 00:13:06;;;;;;;25.48;8.33;;;;;;;7.24;89.13;101708.16;1739958;82;20978;-62
2021/11/18 00:15:33;;;;;;;20.88;7.10;;;;;;;7.24;87.96;101704.16;1757986;81;21048;-61
2021/11/18 00:18:06;;;;;;;15.43;7.28;;;;;;;7.13;88.43;101704.21;1793884;79;21001;-63
2021/11/18 00:20:40;;;;;;;16.65;8.05;;;;;;;7.09;89.02;101699.80;1775487;80;22060;-62
2021/11/18 00:23:07;;;;;;;23.10;8.80;;;;;;;7.10;89.20;101701.56;1794100;79;21311;-63
2021/11/18 00:25:33;;;;;;;28.30;8.95;;;;;;;7.16;89.12;101708.19;1793857;79;21040;-63
2021/11/18 00:28:00;;;;;;;19.02;8.63;;;;;;;7.23;88.74;101710.38;1770884;79;21057;-62
2021/11/18 00:30:27;;;;;;;15.98;6.90;;;;;;;7.33;88.19;101704.08;1768987;81;21024;-63
2021/11/18 00:32:54;;;;;;;14.50;6.50;;;;;;;7.37;87.43;101712.50;1766308;80;21189;-62
2021/11/18 00:35:24;;;;;;;15.75;6.87;;;;;;;7.31;87.11;101709.45;1767808;80;21064;-62
2021/11/18 00:37:51;;;;;;;17.45;7.03;;;;;;;7.24;87.05;101709.48;1768272;80;21052;-62
2021/11/18 00:40:22;;;;;;;16.77;6.58;;;;;;;7.12;87.31;101708.64;1751529;80;20982;-62
2021/11/18 00:42:50;;;;;;;20.17;7.33;;;;;;;7.11;87.74;101713.53;1759781;81;21096;-61
2021/11/18 00:45:20;;;;;;;25.90;7.33;;;;;;;7.12;88.04;101712.64;1767363;80;21141;-62
2021/11/18 00:47:51;;;;;;;12.98;5.40;;;;;;;7.17;88.39;101712.16;1790250;79;21658;-62
2021/11/18 00:50:19;;;;;;;16.52;6.87;;;;;;;7.21;88.70;101709.51;1795969;79;21084;-62
2021/11/18 00:52:46;;;;;;;13.18;6.08;;;;;;;7.22;88.96;101707.28;1790069;79;21010;-62
2021/11/18 00:55:13;;;;;;;17.15;5.85;;;;;;;7.23;89.09;101710.38;1766321;79;21009;-62
2021/11/18 00:57:39;;;;;;;20.27;6.12;;;;;;;7.17;88.97;101704.63;1762320;81;21135;-63
2021/11/18 01:00:20;;;;;;;19.75;6.42;;;;;;;7.10;89.11;101699.77;1772252;79;21433;-62
2021/11/18 01:02:48;;;;;;;14.78;6.50;;;;;;;7.07;89.17;101694.45;1743828;82;21084;-62
2021/11/18 01:05:15;;;;;;;14.25;6.37;;;;;;;7.01;89.41;101698.03;1737057;82;21454;-61
2021/11/18 01:07:42;;;;;;;14.80;5.60;;;;;;;6.95;89.97;101695.83;1765371;80;21038;-61
2021/11/18 01:10:11;;;;;;;16.35;5.83;;;;;;;6.90;90.32;101694.98;1770303;81;21490;-57
2021/11/18 01:12:39;;;;;;;14.40;6.10;;;;;;;6.86;91.11;101690.13;1779290;79;21467;-63
2021/11/18 01:15:09;;;;;;;16.12;6.03;;;;;;;6.79;91.14;101689.26;1768371;81;21009;-63
2021/11/18 01:17:37;;;;;;;19.35;6.22;;;;;;;6.75;91.36;101692.84;1790866;80;20960;-61
2021/11/18 01:20:06;;;;;;;11.55;6.00;;;;;;;6.73;91.83;101701.25;1799654;79;21004;-62
2021/11/18 01:22:33;;;;;;;22.62;5.70;;;;;;;6.70;91.93;101689.28;1763590;79;21718;-62
2021/11/18 01:25:00;;;;;;;13.88;5.83;;;;;;;6.68;92.10;101687.06;1741074;81;21096;-62
2021/11/18 01:27:29;;;;;;;18.23;6.37;;;;;;;6.69;92.35;101692.84;1734971;82;21473;-62
2021/11/18 01:29:57;;;;;;;13.93;5.80;;;;;;;6.68;92.42;101691.06;1747977;81;21037;-62
2021/11/18 01:32:24;;;;;;;11.60;6.12;;;;;;;6.66;92.75;101696.84;1776835;80;21036;-56
2021/11/18 01:34:52;;;;;;;20.23;6.12;;;;;;;6.64;92.87;101682.64;1762055;80;21181;-56
2021/11/18 01:37:18;;;;;;;16.45;6.62;;;;;;;6.63;93.13;101694.20;1767925;81;21099;-56
2021/11/18 01:39:45;;;;;;;10.72;6.22;;;;;;;6.64;93.20;101687.55;1765810;80;21079;-56
2021/11/18 01:42:12;;;;;;;10.68;5.78;;;;;;;6.67;92.89;101694.63;1781845;79;21025;-55
2021/11/18 01:44:43;;;;;;;14.25;6.62;;;;;;;6.70;92.41;101693.27;1775583;80;21494;-56
2021/11/18 01:47:11;;;;;;;13.50;6.67;;;;;;;6.69;91.73;101699.50;1776552;80;21083;-56
2021/11/18 01:49:43;;;;;;;20.72;7.83;;;;;;;6.64;91.37;101697.30;1772639;80;20957;-55
2021/11/18 01:52:14;;;;;;;20.23;7.08;;;;;;;6.62;91.20;101695.09;1775215;79;21016;-56
2021/11/18 01:54:41;;;;;;;18.82;7.17;;;;;;;6.59;90.72;101692.88;1793030;79;21259;-56
2021/11/18 01:57:11;;;;;;;18.10;7.10;;;;;;;6.58;90.80;101684.87;1795894;79;21021;-56
2021/11/18 01:59:44;;;;;;;15.38;6.42;;;;;;;6.64;90.81;101690.64;1753656;81;21133;-57
2021/11/18 02:02:16;;;;;;;15.85;6.75;;;;;;;6.69;89.69;101685.73;1732308;81;21013;-55
2021/11/18 02:04:56;;;;;;;22.20;8.20;;;;;;;6.64;88.08;101686.21;1730344;81;21021;-62
2021/11/18 02:07:25;;;;;;;16.35;7.17;;;;;;;6.49;87.73;101680.45;1775511;79;21372;-56
2021/11/18 02:09:52;;;;;;;23.12;6.60;;;;;;;6.34;88.22;101688.52;1818411;78;21048;-62
2021/11/18 02:12:26;;;;;;;22.60;6.00;;;;;;;6.26;88.82;101684.07;1797222;79;21093;-62
2021/11/18 02:14:54;;;;;;;20.25;7.28;;;;;;;6.28;90.72;101672.97;1801483;79;21094;-62
2021/11/18 02:17:22;;;;;;;18.12;7.28;;;;;;;6.36;91.29;101678.74;1779936;80;21073;-56
2021/11/18 02:20:04;;;;;;;27.80;7.50;;;;;;;6.39;91.01;101674.73;1792030;79;21076;-55
2021/11/18 02:22:32;;;;;;;22.42;7.12;;;;;;;6.37;90.88;101676.05;1789864;79;21525;-56
2021/11/18 02:25:02;;;;;;;18.50;6.37;;;;;;;6.32;91.00;101683.64;1766516;81;21111;-55
2021/11/18 02:27:30;;;;;;;16.10;6.87;;;;;;;6.32;91.49;101682.31;1800783;79;21636;-61
2021/11/18 02:29:58;;;;;;;19.77;7.22;;;;;;;6.28;91.09;101676.09;1745313;80;21111;-55
2021/11/18 02:32:31;;;;;;;21.20;8.15;;;;;;;6.20;90.45;101676.10;1776217;80;21036;-61
2021/11/18 02:35:12;;;;;;;20.85;7.60;;;;;;;6.07;90.30;101685.89;1801267;79;21016;-55
2021/11/18 02:37:39;;;;;;;24.20;7.87;;;;;;;6.00;90.51;101682.77;1761734;79;21120;-55
2021/11/18 02:40:09;;;;;;;22.70;8.90;;;;;;;6.08;91.08;101681.44;1743222;80;21116;-55
2021/11/18 02:42:36;;;;;;;20.10;8.85;;;;;;;6.22;90.59;101692.96;1789012;80;21033;-55
2021/11/18 02:45:08;;;;;;;24.92;9.35;;;;;;;6.33;88.43;101694.73;1780255;79;21039;-61
2021/11/18 02:47:34;;;;;;;24.37;8.28;;;;;;;6.35;87.08;101696.48;1796764;79;20969;-59
2021/11/18 02:50:04;;;;;;;20.97;9.03;;;;;;;6.41;86.46;101691.17;1793830;79;21514;-61
2021/11/18 02:52:32;;;;;;;16.70;8.48;;;;;;;6.50;85.99;101698.68;1782173;79;21101;-55
2021/11/18 02:55:05;;;;;;;17.52;7.62;;;;;;;6.56;85.46;101704.89;1792178;79;21038;-55
2021/11/18 02:57:33;;;;;;;14.93;7.15;;;;;;;6.59;85.11;101704.87;1723763;82;21010;-55
2021/11/18 03:00:00;;;;;;;14.45;7.22;;;;;;;6.64;87.01;101691.55;1747260;81;21567;-55
2021/11/18 03:02:27;;;;;;;21.05;8.43;;;;;;;6.67;87.61;101698.63;1794176;79;21126;-63
2021/11/18 03:04:55;;;;;;;21.37;8.43;;;;;;;6.65;86.56;101687.08;1792101;79;21006;-62
2021/11/18 03:07:22;;;;;;;22.48;9.43;;;;;;;6.50;83.44;101690.23;1795776;79;20988;-62
2021/11/18 03:09:49;;;;;;;22.37;9.18;;;;;;;6.22;81.78;101691.63;1796285;78;21561;-61
2021/11/18 03:12:18;;;;;;;21.50;9.65;;;;;;;5.98;81.67;101696.06;1780218;79;21087;-56
2021/11/18 03:14:45;;;;;;;17.12;8.75;;;;;;;5.76;81.27;101682.32;1792117;79;21174;-55
2021/11/18 03:17:13;;;;;;;20.37;8.55;;;;;;;5.53;81.99;101689.84;1773580;79;21672;-56
2021/11/18 03:19:47;;;;;;;23.22;9.15;;;;;;;5.35;83.00;101684.07;1776620;79;23408;-55
2021/11/18 03:22:14;;;;;;;20.85;9.43;;;;;;;5.22;84.46;101686.69;1796298;79;21400;-62
2021/11/18 03:24:41;;;;;;;25.43;9.48;;;;;;;5.11;85.15;101687.99;1795990;78;21084;-62
2021/11/18 03:27:09;;;;;;;33.65;9.13;;;;;;;5.04;85.29;101683.55;1776731;79;21135;-55
2021/11/18 03:29:37;;;;;;;31.48;8.45;;;;;;;5.01;85.60;101683.09;1796139;79;21073;-61
2021/11/18 03:32:06;;;;;;;38.15;8.20;;;;;;;5.05;85.67;101688.41;1796369;79;21597;-55
2021/11/18 03:34:33;;;;;;;32.95;9.40;;;;;;;5.12;85.87;101691.55;1785394;78;21506;-55
2021/11/18 03:37:01;;;;;;;19.73;8.93;;;;;;;5.16;85.42;101692.00;1764488;80;21121;-56
2021/11/18 03:39:28;;;;;;;23.15;9.25;;;;;;;5.15;85.82;101696.41;1764904;80;21984;-55
2021/11/18 03:42:01;;;;;;;17.20;8.33;;;;;;;5.18;85.77;101687.58;1779808;79;21043;-62
2021/11/18 03:44:28;;;;;;;21.30;8.10;;;;;;;5.15;85.49;101692.43;1786817;79;21049;-62
2021/11/18 03:47:00;;;;;;;30.10;8.88;;;;;;;5.09;85.36;101690.22;1776068;79;21099;-62
2021/11/18 03:49:27;;;;;;;18.45;8.45;;;;;;;5.05;85.60;101689.31;1776922;79;21506;-56
2021/11/18 03:51:57;;;;;;;19.35;8.83;;;;;;;5.07;85.64;101690.63;1791069;79;21041;-56
2021/11/18 03:54:26;;;;;;;23.60;8.83;;;;;;;5.04;85.73;101690.20;1757245;79;21471;-62
2021/11/18 03:56:53;;;;;;;33.40;9.45;;;;;;;5.00;85.87;101680.44;1760952;79;21044;-55
2021/11/18 03:59:26;;;;;;;32.42;10.13;;;;;;;4.99;86.22;101686.64;1764611;81;21441;-55
2021/11/18 04:01:55;;;;;;;23.52;8.65;;;;;;;5.07;86.74;101694.19;1758932;80;21043;-55
2021/11/18 04:04:29;;;;;;;26.50;9.65;;;;;;;5.23;86.84;101704.87;1728538;81;21627;-62
2021/11/18 04:06:56;;;;;;;27.57;9.50;;;;;;;5.39;86.66;101701.80;1728009;83;21106;-62
2021/11/18 04:09:24;;;;;;;25.88;8.85;;;;;;;5.57;85.24;101683.21;1729898;81;20849;-62
2021/11/18 04:11:55;;;;;;;21.17;9.20;;;;;;;5.57;85.24;101683.21;1747145;81;21038;-55
2021/11/18 04:14:22;;;;;;;20.52;9.03;;;;;;;5.54;84.64;101692.95;1753281;81;21501;-61
2021/11/18 04:16:49;;;;;;;19.40;8.68;;;;;;;5.43;84.41;101697.83;1756077;81;21129;-62
2021/11/18 04:19:16;;;;;;;27.22;8.18;;;;;;;5.35;84.35;101690.72;1757650;81;21047;-56
2021/11/18 04:21:44;;;;;;;24.47;8.95;;;;;;;5.30;84.83;101689.38;1758132;81;21475;-57
2021/11/18 04:24:15;;;;;;;19.20;8.50;;;;;;;5.30;86.15;101701.34;1751105;81;21468;-55
2021/11/18 04:26:45;;;;;;;31.42;9.95;;;;;;;5.28;85.80;101693.34;1731329;81;21078;-55
2021/11/18 04:29:13;;;;;;;18.17;8.33;;;;;;;5.30;85.63;101694.69;1753247;81;22313;-56
2021/11/18 04:31:40;;;;;;;25.35;10.28;;;;;;;5.35;85.79;101703.56;1735048;81;21118;-55
2021/11/18 04:34:09;;;;;;;20.25;8.58;;;;;;;5.34;86.74;101701.78;1723920;83;21058;-55
2021/11/18 04:36:38;;;;;;;18.42;7.67;;;;;;;5.36;87.12;101701.80;1724094;83;21082;-55
2021/11/18 04:39:06;;;;;;;23.20;8.58;;;;;;;5.37;87.13;101703.58;1741402;81;21090;-55
2021/11/18 04:41:33;;;;;;;21.10;8.68;;;;;;;5.37;87.00;101700.91;1753279;81;21137;-62
2021/11/18 04:44:00;;;;;;;22.87;8.80;;;;;;;5.39;87.25;101704.46;1742854;81;21610;-61
2021/11/18 04:46:27;;;;;;;25.57;8.40;;;;;;;5.40;87.12;101704.45;1731262;81;21023;-63
2021/11/18 04:51:26;;;;;;;19.33;8.63;;;;;;;5.51;85.30;101711.58;1826664;78;24686;-55
2021/11/18 04:53:53;;;;;;;22.87;9.33;;;;;;;5.39;84.42;101713.31;1782479;80;21584;-54
2021/11/18 04:56:22;;;;;;;28.65;9.43;;;;;;;5.29;84.15;101715.52;1782561;79;21143;-55
2021/11/18 04:58:48;;;;;;;19.27;8.55;;;;;;;5.18;84.50;101718.58;1780454;79;21087;-61
2021/11/18 05:01:16;;;;;;;23.77;9.38;;;;;;;5.12;84.65;101720.34;1753094;80;21430;-61
2021/11/18 05:03:43;;;;;;;29.50;9.40;;;;;;;5.07;85.00;101714.13;1751428;81;20985;-55
2021/11/18 05:06:10;;;;;;;27.52;8.93;;;;;;;5.09;85.67;101726.98;1751435;81;21072;-55
2021/11/18 05:08:38;;;;;;;29.92;9.13;;;;;;;5.14;85.89;101723.89;1750556;80;21106;-54
2021/11/18 05:11:06;;;;;;;26.27;8.55;;;;;;;5.23;86.15;101723.48;1745753;82;21031;-55
2021/11/18 05:13:33;;;;;;;25.82;9.08;;;;;;;5.31;85.65;101736.36;1770284;79;20968;-55
2021/11/18 05:16:04;;;;;;;37.73;11.03;;;;;;;5.26;84.54;101738.13;1783069;80;21024;-55
2021/11/18 05:18:32;;;;;;;23.85;9.93;;;;;;;5.18;84.26;101735.43;1782212;79;20976;-62
2021/11/18 05:20:59;;;;;;;24.65;9.00;;;;;;;5.14;84.29;101739.84;1780749;80;21146;-55
2021/11/18 05:23:27;;;;;;;29.85;9.98;;;;;;;5.12;83.89;101740.28;1762396;80;21049;-61
2021/11/18 05:25:56;;;;;;;21.82;9.68;;;;;;;5.09;84.02;101741.59;1782349;80;20996;-62
2021/11/18 05:28:23;;;;;;;22.02;10.20;;;;;;;5.15;84.28;101745.60;1764018;80;21343;-61
2021/11/18 05:30:51;;;;;;;25.50;9.25;;;;;;;5.26;84.08;101743.44;1752483;81;20996;-62
2021/11/18 05:33:19;;;;;;;24.63;9.38;;;;;;;5.35;83.52;101743.45;1752168;81;21127;-62
2021/11/18 05:35:47;;;;;;;22.37;9.50;;;;;;;5.41;82.83;101742.59;1775823;80;21099;-62
2021/11/18 05:38:14;;;;;;;25.55;9.60;;;;;;;5.47;82.58;101749.24;1750144;80;21099;-62
2021/11/18 05:40:44;;;;;;;27.25;10.35;;;;;;;5.55;82.22;101753.25;1796423;78;21011;-61
2021/11/18 05:43:12;;;;;;;26.15;11.20;;;;;;;5.61;81.51;101755.05;1792845;79;21437;-62
2021/11/18 05:45:40;;;;;;;26.00;9.90;;;;;;;5.61;80.98;101751.05;1750623;80;21718;-61
2021/11/18 05:48:13;;;;;;;26.57;10.48;;;;;;;5.63;80.46;101752.81;1783911;80;21031;-62
2021/11/18 05:50:46;;;;;;;21.25;9.55;;;;;;;5.60;80.00;101751.48;1785226;78;21898;-62
2021/11/18 05:53:11;;;;;;;23.92;9.45;;;;;;;5.57;79.39;101752.81;1737198;80;21142;-62
2021/11/18 05:55:39;;;;;;;26.95;10.48;;;;;;;5.50;79.17;101752.36;1760098;80;21122;-64
2021/11/18 05:58:06;;;;;;;29.15;10.95;;;;;;;5.47;79.14;101753.23;1788078;80;21130;-62
2021/11/18 06:00:34;;;;;;;24.00;11.03;;;;;;;5.47;79.09;101757.68;1790998;79;21564;-62
2021/11/18 06:03:01;;;;;;;26.93;11.15;;;;;;;5.47;78.94;101759.02;1822706;77;21019;-62
2021/11/18 06:05:28;;;;;;;25.80;10.35;;;;;;;5.47;78.79;101763.00;1798054;78;21034;-62
2021/11/18 06:07:56;;;;;;;23.75;9.35;;;;;;;5.50;78.62;101764.33;1781515;80;21032;-61
2021/11/18 06:10:24;;;;;;;23.35;10.03;;;;;;;5.52;78.01;101769.22;1755351;80;21104;-62
2021/11/18 06:12:53;;;;;;;26.25;9.88;;;;;;;5.50;77.74;101768.33;1767619;80;20933;-62
2021/11/18 06:15:22;;;;;;;22.52;9.78;;;;;;;5.50;77.46;101764.33;1780904;79;20988;-63
2021/11/18 06:17:49;;;;;;;19.48;9.73;;;;;;;5.49;76.74;101761.23;1775756;80;21032;-62
2021/11/18 06:20:15;;;;;;;21.90;10.03;;;;;;;5.38;76.28;101764.73;1766427;80;21048;-63
2021/11/18 06:22:44;;;;;;;24.87;10.48;;;;;;;5.30;76.28;101763.41;1786349;80;21040;-63
2021/11/18 06:25:15;;;;;;;26.55;11.05;;;;;;;5.26;76.05;101754.94;1765475;79;21422;-62
2021/11/18 06:27:44;;;;;;;23.90;9.33;;;;;;;5.26;76.05;101754.94;1801862;79;20992;-63
2021/11/18 06:30:16;;;;;;;26.40;10.10;;;;;;;5.27;75.95;101756.72;1792466;79;21801;-63
2021/11/18 06:32:43;;;;;;;27.37;10.08;;;;;;;5.26;75.67;101758.06;1787924;80;20956;-63
2021/11/18 06:35:11;;;;;;;22.20;9.88;;;;;;;5.26;75.56;101754.07;1787737;79;21855;-63
2021/11/18 06:37:38;;;;;;;23.35;9.85;;;;;;;5.29;75.39;101751.42;1787862;80;21456;-57
2021/11/18 06:40:07;;;;;;;22.40;9.45;;;;;;;5.27;74.56;101745.21;1757724;79;21019;-61
2021/11/18 06:42:36;;;;;;;26.02;9.45;;;;;;;5.27;74.56;101745.21;1782070;79;20999;-64
2021/11/18 06:45:07;;;;;;;33.78;10.40;;;;;;;5.24;74.28;101747.41;1778712;79;21091;-62
2021/11/18 06:47:34;;;;;;;30.12;10.03;;;;;;;5.18;73.95;101749.15;1778155;80;21306;-63
2021/11/18 06:50:02;;;;;;;24.05;10.32;;;;;;;5.10;74.10;101750.02;1782202;79;21140;-62
2021/11/18 06:52:28;;;;;;;22.62;10.38;;;;;;;5.05;73.87;101747.80;1777081;80;20984;-62
2021/11/18 06:54:56;;;;;;;27.87;10.25;;;;;;;5.03;74.01;101749.56;1777671;79;21022;-63
2021/11/18 06:57:23;;;;;;;23.70;12.13;;;;;;;5.02;73.91;101746.45;1772114;79;21455;-62
2021/11/18 06:59:50;;;;;;;32.55;12.50;;;;;;;4.98;73.94;101748.66;1768874;79;21583;-64
2021/11/18 07:02:18;;;;;;;29.07;11.78;;;;;;;4.99;74.22;101750.44;1731621;81;21112;-64
2021/11/18 07:04:48;;;;;;;24.77;10.32;;;;;;;4.98;74.02;101748.20;1721241;81;21122;-63
2021/11/18 07:07:15;;;;;;;20.70;9.78;;;;;;;4.98;74.02;101748.20;1722626;81;21036;-64
2021/11/18 07:09:44;;;;;;;27.27;10.23;;;;;;;5.01;73.93;101753.98;1722769;81;22233;-63
2021/11/18 07:12:15;;;;;;;24.95;9.48;;;;;;;4.96;73.84;101748.64;1718025;80;21163;-64
2021/11/18 07:14:43;;;;;;;23.25;9.93;;;;;;;4.96;73.84;101748.64;1714001;81;21143;-63
2021/11/18 07:17:10;;;;;;;24.55;10.10;;;;;;;4.92;73.58;101749.52;1712966;81;21100;-65
2021/11/18 07:19:37;;;;;;;24.60;9.73;;;;;;;4.83;73.64;101746.80;1718603;81;21001;-63
2021/11/18 07:22:05;;;;;;;23.87;9.93;;;;;;;4.81;74.05;101751.22;1693764;82;21566;-63
2021/11/18 07:24:43;;;;;;;18.73;9.75;;;;;;;4.82;74.21;101741.94;1719687;80;21226;-62
2021/11/18 07:27:10;;;;;;;20.23;9.13;;;;;;;4.83;74.16;101740.15;1731433;81;21839;-63
2021/11/18 07:29:38;;;;;;;24.00;9.93;;;;;;;4.82;74.15;101745.92;1697498;81;21690;-63
2021/11/18 07:32:06;;;;;;;26.27;10.30;;;;;;;4.79;74.18;101745.91;1729715;81;21347;-64
2021/11/18 07:34:33;;;;;;;22.70;9.78;;;;;;;4.77;74.27;101742.78;1732375;81;21108;-63
2021/11/18 07:37:04;;;;;;;23.05;10.05;;;;;;;4.75;74.34;101742.77;1733940;81;21209;-64
2021/11/18 07:39:32;;;;;;;24.95;10.00;;;;;;;4.66;74.47;101752.03;1729718;81;21436;-63
2021/11/18 07:41:59;;;;;;;22.27;10.23;;;;;;;4.66;74.47;101752.03;1727650;81;21154;-65
2021/11/18 07:44:44;;;;;;;;;;;;;;;4.61;74.95;101745.81;1733004;81;21118;-63
2021/11/18 07:47:17;;;;;;;30.62;13.03;;;;;;;4.53;75.56;101759.94;1722857;80;20234;-66
2021/11/18 07:49:45;;;;;;;34.78;11.03;;;;;;;4.53;76.24;101766.58;1734377;81;21114;-67
2021/11/18 07:52:12;;;;;;;29.02;10.85;;;;;;;4.56;76.54;101765.27;1735243;81;21048;-65
2021/11/18 07:54:39;;;;;;;25.88;11.30;;;;;;;4.59;77.30;101763.95;1738047;81;21009;-66
2021/11/18 07:57:08;;;;;;;26.75;14.03;;;;;;;4.59;77.30;101763.95;1748126;80;21015;-66
2021/11/18 07:59:36;;;;;;;35.08;11.05;;;;;;;4.71;77.72;101760.91;1779202;79;20953;-65
2021/11/18 08:02:04;;;;;;;38.63;12.75;;;;;;;4.82;77.72;101767.61;1779463;79;21533;-57
2021/11/18 08:04:33;;;;;;;41.05;14.15;;;;;;;4.90;77.57;101759.67;1781208;79;21058;-57
2021/11/18 08:07:04;;;;;;;34.58;10.53;;;;;;;4.90;77.51;101750.38;1761045;79;21417;-57
2021/11/18 08:09:31;;;;;;;29.05;10.90;;;;;;;4.97;77.57;101753.50;1776299;78;21023;-58
2021/11/18 08:12:00;;;;;;;35.90;12.80;;;;;;;5.03;77.62;101749.56;1776731;78;21030;-57
2021/11/18 08:14:27;;;;;;;33.33;12.25;;;;;;;5.10;77.71;101756.67;1781822;79;21646;-57
2021/11/18 08:16:54;;;;;;;23.15;10.48;;;;;;;5.24;77.71;101755.84;1779478;78;21099;-58
2021/11/18 08:19:21;;;;;;;35.73;11.88;;;;;;;5.52;77.44;101758.57;1779691;79;20904;-58
2021/11/18 08:21:50;;;;;;;21.75;11.50;;;;;;;5.52;77.44;101758.57;1757733;79;21059;-57
2021/11/18 08:24:21;;;;;;;26.02;11.30;;;;;;;5.66;77.30;101758.17;1781738;79;21266;-58
2021/11/18 08:26:48;;;;;;;30.20;12.82;;;;;;;5.67;76.85;101761.70;1781374;79;21013;-56
2021/11/18 08:29:19;;;;;;;47.45;12.90;;;;;;;5.62;77.13;101760.34;1778095;79;21426;-56
2021/11/18 08:31:46;;;;;;;74.07;19.67;;;;;;;5.71;77.44;101764.38;1778122;79;20978;-57
2021/11/18 08:34:31;;;;;;;41.92;13.93;;;;;;;5.84;77.62;101760.38;1780092;79;21236;-57
2021/11/18 08:37:00;;;;;;;42.15;15.53;;;;;;;5.99;77.60;101758.20;1775720;79;21376;-57
2021/11/18 08:39:28;;;;;;;33.38;11.65;;;;;;;6.14;77.40;101761.33;1780177;79;21031;-56
2021/11/18 08:41:58;;;;;;;25.88;10.23;;;;;;;6.28;77.08;101756.87;1779617;79;21063;-56
2021/11/18 08:44:27;;;;;;;24.63;10.82;;;;;;;6.35;76.35;101759.55;1776550;79;21770;-58
2021/11/18 08:46:55;;;;;;;29.48;10.55;;;;;;;6.37;76.45;101755.10;1759310;79;21564;-57
2021/11/18 08:49:22;;;;;;;29.07;12.07;;;;;;;6.47;76.28;101744.86;1779851;79;21118;-58
2021/11/18 08:51:49;;;;;;;42.62;12.95;;;;;;;6.56;76.16;101754.18;1745080;79;21882;-57
2021/11/18 08:54:23;;;;;;;45.60;14.55;;;;;;;6.68;76.09;101749.70;1724006;81;21469;-58
2021/11/18 08:56:52;;;;;;;43.58;15.72;;;;;;;6.79;75.63;101753.23;1722794;81;21040;-57
2021/11/18 08:59:21;;;;;;;48.90;15.70;;;;;;;6.87;75.13;101761.21;1728507;81;21056;-58
2021/11/18 09:01:54;;;;;;;48.15;15.95;;;;;;;6.92;74.83;101759.84;1726744;81;21011;-57
2021/11/18 09:04:23;;;;;;;44.20;16.42;;;;;;;6.97;74.71;101760.27;1722978;81;21789;-59
2021/11/18 09:06:50;;;;;;;39.60;14.47;;;;;;;7.06;74.57;101763.35;1726865;82;21394;-58
2021/11/18 09:09:19;;;;;;;45.38;16.15;;;;;;;7.16;74.37;101753.53;1719672;81;21064;-58
2021/11/18 09:11:46;;;;;;;45.85;18.00;;;;;;;7.27;74.15;101756.15;1728865;81;20999;-58
2021/11/18 09:14:17;;;;;;;43.75;16.93;;;;;;;7.37;73.91;101754.31;1722744;81;21045;-56
2021/11/18 09:16:45;;;;;;;41.08;15.80;;;;;;;7.47;73.69;101755.16;1723168;81;21452;-57
2021/11/18 09:19:16;;;;;;;29.82;13.98;;;;;;;7.57;73.39;101747.52;1722643;81;21161;-57
2021/11/18 09:21:43;;;;;;;33.35;13.55;;;;;;;7.65;73.25;101740.37;1720984;81;21518;-58
2021/11/18 09:24:19;;;;;;;39.38;14.45;;;;;;;7.79;72.92;101738.02;1717361;81;21822;-59
2021/11/18 09:26:51;;;;;;;34.25;14.30;;;;;;;7.89;72.46;101723.72;1723535;81;21059;-58
2021/11/18 09:29:18;;;;;;;33.15;14.10;;;;;;;7.95;72.06;101735.67;1722172;81;21135;-57
2021/11/18 09:31:51;;;;;;;38.78;13.20;;;;;;;8.02;71.77;101741.39;1721130;81;21623;-57
2021/11/18 09:34:20;;;;;;;40.48;14.30;;;;;;;8.08;71.46;101740.46;1694549;84;21114;-58
2021/11/18 09:36:48;;;;;;;36.95;12.82;;;;;;;8.10;71.14;101741.33;1726223;81;22289;-58
2021/11/18 09:39:16;;;;;;;28.32;13.32;;;;;;;8.10;70.96;101735.99;1727178;81;21587;-57
2021/11/18 09:42:02;;;;;;;34.48;15.18;;;;;;;8.14;71.00;101732.86;1700030;82;21794;-57
2021/11/18 09:44:57;;;;;;;35.35;14.03;;;;;;;8.17;70.77;101739.03;1705205;81;21786;-56
2021/11/18 09:48:03;;;;;;;29.25;13.25;;;;;;;8.15;70.59;101725.27;1724703;81;21040;-59
2021/11/18 09:50:46;;;;;;;26.90;11.90;;;;;;;8.12;70.68;101730.65;1658282;81;21989;-58
2021/11/18 09:53:35;;;;;;;31.48;12.28;;;;;;;8.15;70.73;101715.92;1723749;81;21096;-56
2021/11/18 09:56:42;;;;;;;35.50;13.15;;;;;;;8.23;70.32;101716.73;1720851;81;21255;-56
2021/11/18 09:59:25;;;;;;;29.25;13.60;;;;;;;8.31;70.18;101714.88;1723364;81;21056;-59
2021/11/18 10:02:02;;;;;;;29.92;13.98;;;;;;;8.43;69.80;101697.84;1720524;81;21061;-58
2021/11/18 10:04:55;;;;;;;38.13;13.62;;;;;;;8.48;68.89;101697.76;1728786;81;21003;-57
2021/11/18 10:07:49;;;;;;;50.48;16.93;;;;;;;8.44;68.66;101709.39;1701700;82;21032;-59
2021/11/18 10:10:33;;;;;;;34.00;11.73;;;;;;;8.45;68.58;101708.48;1728652;81;21019;-56
2021/11/18 10:13:31;;;;;;;27.80;12.28;;;;;;;8.43;67.59;101703.61;1720351;80;21162;-58
2021/11/18 10:16:09;;;;;;;29.07;12.00;;;;;;;8.26;67.93;101690.44;1723799;80;21107;-57
2021/11/18 10:18:44;;;;;;;32.50;12.95;;;;;;;8.28;68.44;101697.52;1728974;81;20980;-57
2021/11/18 10:21:16;;;;;;;37.45;13.78;;;;;;;8.35;67.89;101696.14;1727015;81;21068;-56
2021/11/18 10:23:43;;;;;;;30.70;11.10;;;;;;;8.30;67.67;101690.40;1725813;81;21511;-66
2021/11/18 10:26:22;;;;;;;32.70;10.93;;;;;;;8.26;67.24;101689.97;1698366;81;21064;-67
2021/11/18 10:29:03;;;;;;;28.95;12.53;;;;;;;8.19;67.48;101689.61;1723372;81;21100;-59
2021/11/18 10:31:54;;;;;;;24.05;9.95;;;;;;;8.12;67.37;101695.45;1727427;81;21152;-58
2021/11/18 10:34:44;;;;;;;31.60;11.40;;;;;;;7.96;67.41;101704.53;1727668;81;22068;-57
2021/11/18 10:37:31;;;;;;;28.45;11.73;;;;;;;7.78;67.96;101698.88;1720411;81;21159;-64
2021/11/18 10:40:25;;;;;;;32.00;11.08;;;;;;;7.64;68.41;101696.32;1721811;81;22272;-58
2021/11/18 10:43:14;;;;;;;26.42;11.57;;;;;;;7.47;68.97;101691.98;1723101;81;21131;-57
2021/11/18 10:45:44;;;;;;;25.27;10.45;;;;;;;7.35;69.69;101678.74;1723963;82;21481;-67
2021/11/18 10:48:36;;;;;;;30.15;10.72;;;;;;;7.37;70.15;101677.81;1695670;82;21141;-65
2021/11/18 10:51:13;;;;;;;32.13;10.48;;;;;;;7.33;70.25;101672.06;1691983;84;22055;-67
2021/11/18 10:53:57;;;;;;;25.45;10.90;;;;;;;7.27;70.65;101672.12;1727605;81;21508;-66
2021/11/18 10:56:56;;;;;;;33.03;11.37;;;;;;;7.15;70.72;101660.61;1728792;81;21437;-67
2021/11/18 10:59:40;;;;;;;25.60;10.82;;;;;;;7.07;71.28;101654.45;1739468;80;21002;-67
2021/11/18 11:02:28;;;;;;;24.82;10.95;;;;;;;7.02;71.02;101657.13;1710843;81;21576;-66
2021/11/18 11:05:25;;;;;;;25.25;11.63;;;;;;;7.01;71.24;101650.50;1731292;82;21193;-67
2021/11/18 11:07:52;;;;;;;35.63;11.90;;;;;;;7.04;71.32;101647.81;1774947;79;21131;-66
2021/11/18 11:10:23;;;;;;;36.33;13.38;;;;;;;7.13;71.43;101651.73;1772557;79;21437;-66
2021/11/18 11:13:01;;;;;;;24.00;11.38;;;;;;;7.20;71.01;101649.05;1778006;79;20998;-68
2021/11/18 11:16:03;;;;;;;32.00;11.85;;;;;;;7.13;70.53;101643.73;1770347;79;21015;-66
2021/11/18 11:18:51;;;;;;;32.48;11.43;;;;;;;7.12;70.86;101651.30;1729477;82;21102;-67
2021/11/18 11:21:36;;;;;;;33.65;12.78;;;;;;;7.04;70.70;101646.47;1732155;82;21044;-66
2021/11/18 11:24:43;;;;;;;26.97;10.88;;;;;;;6.84;71.08;101638.56;1705551;80;21597;-66
2021/11/18 11:27:24;;;;;;;39.53;10.63;;;;;;;6.78;71.65;101642.61;1739876;80;21558;-69
2021/11/18 11:29:57;;;;;;;28.38;11.50;;;;;;;6.72;71.81;101645.75;1769119;79;21071;-65
2021/11/18 11:32:40;;;;;;;28.07;10.83;;;;;;;6.68;71.97;101639.09;1777009;79;20944;-67
2021/11/18 11:35:44;;;;;;;27.85;10.53;;;;;;;6.69;72.23;101639.53;1769460;79;21502;-67
2021/11/18 11:38:36;;;;;;;31.45;11.00;;;;;;;6.82;72.27;101635.02;1764449;79;21456;-67
2021/11/18 11:41:11;;;;;;;26.77;10.23;;;;;;;6.99;72.00;101630.95;1774692;79;21036;-67
2021/11/18 11:44:12;;;;;;;23.05;10.48;;;;;;;7.12;71.46;101625.97;1718625;82;21413;-67